This is the latest recevied weather packets stored in our database for station/object HP1PCR-13. If no packets are shown the sender has not sent any weather packets the latest 10 day(s).
| Time | Temp. | Humidity | Pressure | Rain* | Wind** | Luminosity | Snow |
|---|---|---|---|---|---|---|---|
| 1777624515 | 32.78° C | 45% | 1000.4 hPa | - | - | - | - |
| 1777623910 | 32.78° C | 45% | 1000.3 hPa | - | - | - | - |
| 1777622702 | 32.78° C | 45% | 1000.5 hPa | - | - | - | - |
| 1777622098 | 32.78° C | 45% | 1000.5 hPa | - | - | - | - |
| 1777621494 | 32.78° C | 45% | 1000.6 hPa | - | - | - | - |
| 1777620890 | 32.22° C | 45% | 1000.7 hPa | - | - | - | - |
| 1777620286 | 32.22° C | 45% | 1000.7 hPa | - | - | - | - |
| 1777619682 | 32.22° C | 45% | 1000.8 hPa | - | - | - | - |
| 1777619078 | 32.22° C | 45% | 1000.7 hPa | - | - | - | - |
| 1777617869 | 32.22° C | 45% | 1000.8 hPa | - | - | - | - |
| 1777616662 | 32.22° C | 45% | 1001 hPa | - | - | - | - |
| 1777616058 | 32.22° C | 45% | 1001.1 hPa | - | - | - | - |
| 1777615453 | 31.67° C | 45% | 1001.1 hPa | - | - | - | - |
| 1777614849 | 31.67° C | 44% | 1001.3 hPa | - | - | - | - |
| 1777614245 | 31.67° C | 43% | 1001.4 hPa | - | - | - | - |
| 1777613641 | 31.67° C | 42% | 1001.6 hPa | - | - | - | - |
| 1777613036 | 31.67° C | 41% | 1001.7 hPa | - | - | - | - |
| 1777612432 | 31.11° C | 41% | 1002 hPa | - | - | - | - |
| 1777611828 | 31.11° C | 41% | 1002.2 hPa | - | - | - | - |
| 1777611224 | 31.11° C | 41% | 1002.3 hPa | - | - | - | - |
| 1777610620 | 30.56° C | 41% | 1002.3 hPa | - | - | - | - |
| 1777610016 | 30° C | 37% | 1002.4 hPa | - | - | - | - |
| 1777609412 | 30.56° C | 38% | 1002.5 hPa | - | - | - | - |
| 1777608808 | 30° C | 31% | 1002.5 hPa | - | - | - | - |
| 1777608204 | 30.56° C | 38% | 1002.5 hPa | - | - | - | - |
* Rain since midnight (hover to see other rain measurements)
** Current wind speed in m/s (hover to see current wind gust speed)